Inicio METAR Ruta Wind Satelite

Informe Meteorológico

Fecha: 2024/06/18 19:58:37 Local
2024.06.19 00:58 UTC


Operación:MVFR
SKVP 190100Z 00000KT 9999 VCTS FEW015CB SCT100 23/23 Q1012 RETSRA RMK CB/S =

SKVP 182300Z 26011KT 220V300 1000 +TSRA SCT015CB BKN070 23/23 Q1011
SKVP 182200Z 06009KT 9999 VCSH SCT015TCU SCT070 32/24 Q1008 RMK TCUVCSH/NE/E
SKVP 182100Z 20005KT 9999 VCSH FEW015TCU 32/23 Q1008 RMK TCUVCSH/NE/E
SKVP 182000Z 22004KT 190V250 9999 FEW015TCU 34/23 Q1008 RMK TCUVCSH/NE/E
SKVP 181900Z 18006KT 120V200 9999 FEW015 33/24 Q1010